Time;durP1;ratioP1;P1;durP2;ratioP2;P2;SDS_P1;SDS_P2;PMS_P1;PMS_P2;Temp;Humidity;BMP_temperature;BMP_pressure;BME280_temperature;BME280_humidity;BME280_pressure;Samples;Min_cycle;Max_cycle;Signal;HPM_P1;HPM_P2
2023/04/27 00:01:47;;;;;;;16.67;15.75;;;;;;;;;;5050206;28;20102;-64
2023/04/27 00:04:13;;;;;;;16.98;15.98;;;;;;;;;;5061031;28;20028;-63
2023/04/27 00:06:38;;;;;;;16.92;15.93;;;;;;;;;;5062500;28;20028;-64
2023/04/27 00:09:03;;;;;;;15.88;14.98;;;;;;;;;;5054085;28;20472;-63
2023/04/27 00:11:29;;;;;;;15.57;14.77;;;;;;;;;;5055512;28;20039;-64
2023/04/27 00:13:54;;;;;;;15.60;14.70;;;;;;;;;;5052650;28;20029;-63
2023/04/27 00:16:20;;;;;;;15.30;14.50;;;;;;;;;;5047772;28;20071;-63
2023/04/27 00:18:45;;;;;;;16.83;15.82;;;;;;;;;;5059127;28;20020;-63
2023/04/27 00:21:11;;;;;;;14.70;14.00;;;;;;;;;;5042517;28;20071;-63
2023/04/27 00:23:36;;;;;;;16.08;15.18;;;;;;;;;;5055816;28;20079;-63
2023/04/27 00:26:01;;;;;;;16.45;15.55;;;;;;;;;;5049102;28;20021;-63
2023/04/27 00:28:27;;;;;;;15.75;14.85;;;;;;;;;;5061795;28;20105;-63
2023/04/27 00:30:53;;;;;;;19.52;17.98;;;;;;;;;;5045888;28;20088;-64
2023/04/27 00:33:19;;;;;;;15.60;14.80;;;;;;;;;;5054501;28;20032;-64
2023/04/27 00:35:44;;;;;;;16.40;15.50;;;;;;;;;;5056336;28;20381;-64
2023/04/27 00:38:10;;;;;;;15.80;15.00;;;;;;;;;;5049652;28;20029;-64
2023/04/27 00:40:36;;;;;;;16.25;15.38;;;;;;;;;;5046584;28;20052;-64
2023/04/27 00:43:01;;;;;;;16.55;15.65;;;;;;;;;;5056486;28;20025;-63
2023/04/27 00:45:27;;;;;;;16.50;15.60;;;;;;;;;;5054921;28;20096;-63
2023/04/27 00:47:52;;;;;;;16.70;15.80;;;;;;;;;;5048992;28;20014;-64
2023/04/27 00:50:26;;;;;;;15.50;14.70;;;;;;;;;;5057086;28;20025;-63
2023/04/27 00:52:51;;;;;;;16.15;15.25;;;;;;;;;;5044693;28;20428;-63
2023/04/27 00:55:16;;;;;;;16.50;15.60;;;;;;;;;;5057580;28;20017;-64
2023/04/27 00:57:42;;;;;;;16.48;15.57;;;;;;;;;;5046775;28;20024;-63
2023/04/27 01:00:09;;;;;;;17.33;16.30;;;;;;;;;;5050296;28;20037;-64
2023/04/27 01:02:35;;;;;;;15.80;15.00;;;;;;;;;;5037007;28;20073;-63
2023/04/27 01:05:01;;;;;;;15.82;15.02;;;;;;;;;;5044597;28;20047;-64
2023/04/27 01:07:27;;;;;;;16.63;15.63;;;;;;;;;;5056791;28;20021;-64
2023/04/27 01:09:52;;;;;;;16.70;15.70;;;;;;;;;;5050906;28;20074;-64
2023/04/27 01:12:17;;;;;;;15.50;14.70;;;;;;;;;;5044673;28;20021;-64
2023/04/27 01:14:43;;;;;;;15.43;14.65;;;;;;;;;;5041709;28;20013;-64
2023/04/27 01:17:08;;;;;;;15.43;14.63;;;;;;;;;;5061443;28;20075;-64
2023/04/27 01:19:34;;;;;;;16.05;15.15;;;;;;;;;;5052294;28;20029;-64
2023/04/27 01:22:00;;;;;;;16.30;15.30;;;;;;;;;;5059947;28;20031;-64
2023/04/27 01:24:25;;;;;;;15.75;14.95;;;;;;;;;;5051153;28;20091;-64
2023/04/27 01:26:52;;;;;;;15.75;14.95;;;;;;;;;;5050235;28;20399;-64
2023/04/27 01:29:18;;;;;;;15.40;14.60;;;;;;;;;;5070868;28;20105;-63
2023/04/27 01:31:43;;;;;;;16.15;15.15;;;;;;;;;;5053113;28;20472;-64
2023/04/27 01:34:08;;;;;;;16.80;15.70;;;;;;;;;;5056559;28;20396;-64
2023/04/27 01:36:34;;;;;;;15.52;14.70;;;;;;;;;;5049326;28;20032;-63
2023/04/27 01:39:00;;;;;;;15.55;14.75;;;;;;;;;;5058555;28;20021;-64
2023/04/27 01:41:25;;;;;;;14.73;14.00;;;;;;;;;;5053076;28;20023;-63
2023/04/27 01:43:50;;;;;;;16.00;15.02;;;;;;;;;;5056089;28;20063;-63
2023/04/27 01:46:16;;;;;;;15.95;14.98;;;;;;;;;;5058833;28;20021;-63
2023/04/27 01:48:41;;;;;;;14.50;13.80;;;;;;;;;;5052278;28;20028;-64
2023/04/27 01:51:07;;;;;;;15.00;14.20;;;;;;;;;;5051557;28;20530;-64
2023/04/27 01:53:32;;;;;;;15.20;14.40;;;;;;;;;;5058094;28;20033;-64
2023/04/27 01:56:01;;;;;;;16.02;15.05;;;;;;;;;;5049843;28;20028;-63
2023/04/27 01:58:26;;;;;;;16.42;15.40;;;;;;;;;;5061079;28;20021;-63
2023/04/27 02:00:52;;;;;;;14.98;14.18;;;;;;;;;;5056491;28;20048;-64
2023/04/27 02:03:18;;;;;;;14.80;14.00;;;;;;;;;;5053862;28;20047;-64
2023/04/27 02:05:43;;;;;;;14.65;13.95;;;;;;;;;;5056374;28;20032;-64
2023/04/27 02:08:08;;;;;;;14.65;13.95;;;;;;;;;;5050681;28;20511;-63
2023/04/27 02:10:34;;;;;;;16.10;15.10;;;;;;;;;;5051384;28;20412;-63
2023/04/27 02:12:59;;;;;;;15.50;14.60;;;;;;;;;;5050888;28;20020;-63
2023/04/27 02:15:24;;;;;;;14.55;13.85;;;;;;;;;;5048147;28;20029;-63
2023/04/27 02:17:50;;;;;;;15.95;15.05;;;;;;;;;;5041737;28;20048;-63
2023/04/27 02:20:15;;;;;;;15.38;14.55;;;;;;;;;;5052209;28;20542;-64
2023/04/27 02:22:44;;;;;;;16.35;15.35;;;;;;;;;;5053652;28;20020;-63
2023/04/27 02:25:10;;;;;;;14.43;13.73;;;;;;;;;;5053282;28;20009;-63
2023/04/27 02:27:36;;;;;;;15.18;14.38;;;;;;;;;;5042022;28;20388;-63
2023/04/27 02:30:05;;;;;;;16.02;15.13;;;;;;;;;;5050120;28;20444;-63
2023/04/27 02:32:31;;;;;;;16.30;15.32;;;;;;;;;;5049605;28;20016;-63
2023/04/27 02:34:56;;;;;;;15.98;15.07;;;;;;;;;;5057578;28;20073;-63
2023/04/27 02:37:21;;;;;;;16.92;15.82;;;;;;;;;;5051118;28;20468;-63
2023/04/27 02:39:47;;;;;;;15.30;14.50;;;;;;;;;;5050139;28;20172;-63
2023/04/27 02:42:12;;;;;;;15.65;14.85;;;;;;;;;;5047063;28;20438;-63
2023/04/27 02:44:37;;;;;;;16.50;15.55;;;;;;;;;;5045236;28;20030;-63
2023/04/27 02:47:03;;;;;;;16.50;15.50;;;;;;;;;;5045223;28;20024;-64
2023/04/27 02:49:28;;;;;;;16.45;15.45;;;;;;;;;;5049752;28;20026;-65
2023/04/27 02:51:53;;;;;;;15.35;14.55;;;;;;;;;;5042725;28;20013;-64
2023/04/27 02:54:19;;;;;;;15.48;14.57;;;;;;;;;;5046676;28;20037;-64
2023/04/27 02:56:44;;;;;;;15.05;14.25;;;;;;;;;;5041566;28;20072;-63
2023/04/27 02:59:09;;;;;;;15.75;14.75;;;;;;;;;;5042700;28;20366;-63
2023/04/27 03:01:35;;;;;;;15.75;14.85;;;;;;;;;;5048120;28;20159;-64
2023/04/27 03:04:00;;;;;;;15.82;14.90;;;;;;;;;;5045786;28;20031;-63
2023/04/27 03:06:26;;;;;;;15.20;14.40;;;;;;;;;;5040952;28;20040;-63
2023/04/27 03:08:51;;;;;;;15.93;14.95;;;;;;;;;;5050338;28;20485;-63
2023/04/27 03:11:17;;;;;;;15.13;14.32;;;;;;;;;;5056523;28;20029;-63
2023/04/27 03:13:42;;;;;;;15.93;14.93;;;;;;;;;;5050266;28;20021;-63
2023/04/27 03:16:12;;;;;;;15.63;14.65;;;;;;;;;;5053103;28;20527;-63
2023/04/27 03:18:38;;;;;;;14.07;13.38;;;;;;;;;;5045920;28;20056;-63
2023/04/27 03:21:07;;;;;;;14.50;13.70;;;;;;;;;;5054626;28;20067;-63
2023/04/27 03:23:33;;;;;;;13.82;13.13;;;;;;;;;;5054530;28;20017;-63
2023/04/27 03:25:58;;;;;;;14.77;13.88;;;;;;;;;;5050892;28;20023;-63
2023/04/27 03:28:23;;;;;;;14.23;13.43;;;;;;;;;;5060250;28;20124;-63
2023/04/27 03:30:49;;;;;;;13.80;13.02;;;;;;;;;;5052805;28;20100;-63
2023/04/27 03:33:15;;;;;;;14.10;13.30;;;;;;;;;;5053337;28;20049;-64
2023/04/27 03:35:40;;;;;;;13.60;12.90;;;;;;;;;;5052879;28;20036;-64
2023/04/27 03:38:06;;;;;;;14.05;13.25;;;;;;;;;;5059836;28;20079;-64
2023/04/27 03:40:31;;;;;;;13.95;13.15;;;;;;;;;;5061143;28;20033;-64
2023/04/27 03:42:56;;;;;;;14.48;13.57;;;;;;;;;;5056499;28;20028;-63
2023/04/27 03:45:23;;;;;;;13.02;12.32;;;;;;;;;;5060164;28;20071;-63
2023/04/27 03:47:48;;;;;;;13.82;13.07;;;;;;;;;;5053378;28;20082;-63
2023/04/27 03:50:14;;;;;;;14.07;13.27;;;;;;;;;;5055206;28;20422;-63
2023/04/27 03:52:39;;;;;;;14.32;13.52;;;;;;;;;;5058634;28;20543;-64
2023/04/27 03:55:05;;;;;;;14.20;13.40;;;;;;;;;;5053184;28;20016;-64
2023/04/27 03:57:31;;;;;;;13.57;12.88;;;;;;;;;;5052211;28;20155;-63
2023/04/27 03:59:56;;;;;;;13.80;13.10;;;;;;;;;;5053359;28;20087;-65
2023/04/27 04:02:22;;;;;;;14.30;13.50;;;;;;;;;;5062386;28;20105;-63
2023/04/27 04:04:47;;;;;;;14.10;13.30;;;;;;;;;;5052803;28;20040;-64
2023/04/27 04:07:13;;;;;;;14.00;13.30;;;;;;;;;;5050056;28;20491;-65
2023/04/27 04:09:38;;;;;;;13.45;12.75;;;;;;;;;;5053540;28;20036;-63
2023/04/27 04:12:03;;;;;;;13.52;12.82;;;;;;;;;;5056886;28;20016;-64
2023/04/27 04:14:29;;;;;;;15.30;14.40;;;;;;;;;;5048066;28;20016;-65
2023/04/27 04:16:54;;;;;;;14.07;13.35;;;;;;;;;;5044618;28;20041;-64
2023/04/27 04:19:20;;;;;;;14.25;13.45;;;;;;;;;;5055862;28;20030;-64
2023/04/27 04:21:45;;;;;;;14.32;13.52;;;;;;;;;;5062121;28;20075;-64
2023/04/27 04:24:10;;;;;;;13.65;12.95;;;;;;;;;;5048342;28;20491;-63
2023/04/27 04:26:37;;;;;;;14.18;13.48;;;;;;;;;;5049968;28;20024;-64
2023/04/27 04:29:02;;;;;;;14.35;13.65;;;;;;;;;;5054726;28;20013;-64
2023/04/27 04:31:28;;;;;;;14.40;13.70;;;;;;;;;;5058842;28;20372;-65
2023/04/27 04:33:53;;;;;;;14.02;13.32;;;;;;;;;;5053095;28;20048;-64
2023/04/27 04:36:19;;;;;;;13.50;12.82;;;;;;;;;;5060140;28;20028;-65
2023/04/27 04:38:44;;;;;;;14.18;13.48;;;;;;;;;;5062983;28;20035;-64
2023/04/27 04:41:09;;;;;;;14.15;13.45;;;;;;;;;;5055731;28;20544;-63
2023/04/27 04:43:35;;;;;;;15.85;14.95;;;;;;;;;;5044202;28;20033;-61
2023/04/27 04:46:00;;;;;;;13.60;12.90;;;;;;;;;;5052614;28;20017;-61
2023/04/27 04:48:25;;;;;;;13.82;13.13;;;;;;;;;;5050187;28;20096;-62
2023/04/27 04:50:51;;;;;;;14.95;14.15;;;;;;;;;;5051677;28;20473;-61
2023/04/27 04:53:16;;;;;;;15.00;14.20;;;;;;;;;;5047801;28;20431;-62
2023/04/27 04:55:41;;;;;;;13.75;13.05;;;;;;;;;;5053123;28;20025;-59
2023/04/27 04:58:07;;;;;;;14.40;13.70;;;;;;;;;;5047968;28;20075;-61
2023/04/27 05:00:32;;;;;;;13.75;13.07;;;;;;;;;;5050035;28;20025;-60
2023/04/27 05:02:57;;;;;;;14.00;13.30;;;;;;;;;;5052636;28;20029;-60
2023/04/27 05:05:23;;;;;;;14.32;13.63;;;;;;;;;;5041857;28;20033;-62
2023/04/27 05:07:48;;;;;;;13.65;12.98;;;;;;;;;;5050582;28;20100;-61
2023/04/27 05:10:13;;;;;;;14.32;13.63;;;;;;;;;;5048127;28;20388;-64
2023/04/27 05:12:39;;;;;;;13.80;13.10;;;;;;;;;;5047213;28;20017;-63
2023/04/27 05:15:04;;;;;;;14.00;13.30;;;;;;;;;;5051805;28;20109;-63
2023/04/27 05:17:30;;;;;;;13.77;13.07;;;;;;;;;;5043908;28;20492;-64
2023/04/27 05:19:55;;;;;;;14.15;13.45;;;;;;;;;;5066777;28;20107;-64
2023/04/27 05:22:21;;;;;;;13.80;13.10;;;;;;;;;;5062199;28;20029;-64
2023/04/27 05:24:46;;;;;;;13.50;12.85;;;;;;;;;;5053809;28;20100;-64
2023/04/27 05:27:13;;;;;;;12.98;12.38;;;;;;;;;;5053775;28;20028;-64
2023/04/27 05:29:38;;;;;;;13.73;13.02;;;;;;;;;;5062354;28;20537;-64
2023/04/27 05:32:03;;;;;;;14.30;13.60;;;;;;;;;;5049299;28;20185;-64
2023/04/27 05:34:29;;;;;;;14.75;13.95;;;;;;;;;;5046577;28;20045;-63
2023/04/27 05:36:54;;;;;;;13.73;13.02;;;;;;;;;;5058581;28;20016;-63
2023/04/27 05:39:19;;;;;;;13.00;12.40;;;;;;;;;;5041770;28;20037;-63
2023/04/27 05:41:45;;;;;;;14.10;13.40;;;;;;;;;;5046360;28;20025;-64
2023/04/27 05:44:10;;;;;;;13.75;13.07;;;;;;;;;;5040451;28;20021;-65
2023/04/27 05:46:35;;;;;;;15.15;14.35;;;;;;;;;;5045526;28;20040;-66
2023/04/27 05:49:01;;;;;;;14.05;13.35;;;;;;;;;;5038487;28;20020;-65
2023/04/27 05:51:27;;;;;;;14.15;13.45;;;;;;;;;;5042797;28;20098;-66
2023/04/27 05:53:54;;;;;;;13.23;12.63;;;;;;;;;;5061370;28;20472;-65
2023/04/27 05:56:19;;;;;;;14.15;13.45;;;;;;;;;;5054421;28;20032;-66
2023/04/27 05:58:44;;;;;;;13.65;12.95;;;;;;;;;;5051524;28;20021;-65
2023/04/27 06:01:10;;;;;;;13.45;12.85;;;;;;;;;;5045317;28;20569;-63
2023/04/27 06:03:35;;;;;;;14.65;13.85;;;;;;;;;;5039732;28;20021;-64
2023/04/27 06:06:01;;;;;;;13.90;13.20;;;;;;;;;;5050159;28;20435;-64
2023/04/27 06:08:27;;;;;;;13.30;12.70;;;;;;;;;;5049086;28;20384;-64
2023/04/27 06:10:52;;;;;;;13.93;13.23;;;;;;;;;;5051465;28;20380;-64
2023/04/27 06:13:18;;;;;;;14.38;13.68;;;;;;;;;;5048103;28;20033;-64
2023/04/27 06:15:43;;;;;;;14.52;13.82;;;;;;;;;;5037797;28;20131;-65
2023/04/27 06:18:09;;;;;;;14.20;13.50;;;;;;;;;;5038210;28;20504;-66
2023/04/27 06:20:35;;;;;;;13.68;12.98;;;;;;;;;;5044951;28;20029;-65
2023/04/27 06:23:01;;;;;;;13.45;12.80;;;;;;;;;;5046028;28;20100;-66
2023/04/27 06:25:27;;;;;;;13.07;12.48;;;;;;;;;;5047376;28;20109;-65
2023/04/27 06:27:53;;;;;;;15.30;14.50;;;;;;;;;;5049986;28;20473;-65
2023/04/27 06:30:18;;;;;;;13.55;12.95;;;;;;;;;;5049263;28;20039;-65
2023/04/27 06:32:43;;;;;;;14.68;13.90;;;;;;;;;;5035750;28;20025;-66
2023/04/27 06:35:09;;;;;;;15.82;15.02;;;;;;;;;;5042211;28;20418;-64
2023/04/27 06:37:35;;;;;;;15.48;14.68;;;;;;;;;;5045356;28;20033;-66
2023/04/27 06:40:00;;;;;;;14.98;14.18;;;;;;;;;;5050824;28;20086;-64
2023/04/27 06:42:26;;;;;;;14.63;13.82;;;;;;;;;;5044256;28;20086;-63
2023/04/27 06:44:55;;;;;;;14.88;14.07;;;;;;;;;;5041627;28;20048;-64
2023/04/27 06:47:21;;;;;;;14.85;14.05;;;;;;;;;;5041954;28;20024;-68
2023/04/27 06:49:46;;;;;;;14.85;14.05;;;;;;;;;;5039824;28;20374;-69
2023/04/27 06:52:12;;;;;;;13.38;12.77;;;;;;;;;;5050667;28;20013;-66
2023/04/27 06:54:37;;;;;;;14.30;13.60;;;;;;;;;;5044997;28;20110;-65
2023/04/27 06:57:02;;;;;;;15.52;14.73;;;;;;;;;;5048388;28;20035;-64
2023/04/27 06:59:28;;;;;;;14.30;13.60;;;;;;;;;;5046496;28;20030;-68
2023/04/27 07:01:53;;;;;;;14.38;13.68;;;;;;;;;;5052739;28;20049;-65
2023/04/27 07:04:18;;;;;;;14.35;13.65;;;;;;;;;;5051297;28;20411;-65
2023/04/27 07:06:44;;;;;;;13.82;13.13;;;;;;;;;;5049239;28;20112;-67
2023/04/27 07:09:09;;;;;;;14.15;13.45;;;;;;;;;;5053805;28;20029;-66
2023/04/27 07:11:35;;;;;;;14.60;13.90;;;;;;;;;;5056540;28;20036;-65
2023/04/27 07:14:00;;;;;;;15.27;14.48;;;;;;;;;;5050687;28;20014;-65
2023/04/27 07:16:25;;;;;;;15.02;14.23;;;;;;;;;;5054893;28;20103;-65
2023/04/27 07:18:51;;;;;;;15.52;14.68;;;;;;;;;;5044332;28;20446;-65
2023/04/27 07:21:16;;;;;;;16.00;15.10;;;;;;;;;;5044967;28;20449;-65
2023/04/27 07:23:41;;;;;;;16.45;15.45;;;;;;;;;;5048450;28;20029;-64
2023/04/27 07:26:07;;;;;;;15.85;14.95;;;;;;;;;;5055430;28;20111;-65
2023/04/27 07:28:34;;;;;;;15.48;14.60;;;;;;;;;;5054819;28;20651;-65
2023/04/27 07:31:00;;;;;;;16.00;15.05;;;;;;;;;;5056553;28;20074;-64
2023/04/27 07:33:25;;;;;;;16.65;15.63;;;;;;;;;;5056985;28;20104;-65
2023/04/27 07:35:52;;;;;;;16.70;15.70;;;;;;;;;;5039559;28;20029;-65
2023/04/27 07:38:18;;;;;;;16.90;15.80;;;;;;;;;;5053136;28;20099;-65
2023/04/27 07:40:44;;;;;;;17.65;16.45;;;;;;;;;;5043743;28;20207;-64
2023/04/27 07:43:09;;;;;;;16.80;15.70;;;;;;;;;;5047653;28;20483;-63
2023/04/27 07:45:38;;;;;;;17.60;16.40;;;;;;;;;;5052388;28;20951;-64
2023/04/27 07:48:03;;;;;;;17.15;16.00;;;;;;;;;;5047311;28;20031;-63
2023/04/27 07:50:29;;;;;;;16.45;15.40;;;;;;;;;;5039052;28;20020;-66
2023/04/27 07:52:55;;;;;;;17.15;15.98;;;;;;;;;;5038557;28;20033;-63
2023/04/27 07:55:21;;;;;;;16.40;15.30;;;;;;;;;;5041209;28;20021;-63
2023/04/27 07:57:46;;;;;;;15.10;14.20;;;;;;;;;;5048643;28;20051;-64
2023/04/27 08:00:12;;;;;;;15.48;14.50;;;;;;;;;;5047354;28;20089;-64
2023/04/27 08:02:37;;;;;;;15.15;14.25;;;;;;;;;;5052517;28;20450;-66
2023/04/27 08:05:03;;;;;;;15.38;14.45;;;;;;;;;;5043578;28;20532;-66
2023/04/27 08:07:28;;;;;;;14.77;13.90;;;;;;;;;;5045690;28;20040;-63
2023/04/27 08:09:54;;;;;;;15.52;14.55;;;;;;;;;;5041300;28;20021;-66
2023/04/27 08:12:19;;;;;;;16.00;15.00;;;;;;;;;;5048409;28;20031;-65
2023/04/27 08:14:45;;;;;;;15.15;14.25;;;;;;;;;;5050298;28;20040;-60
2023/04/27 08:17:11;;;;;;;17.13;15.95;;;;;;;;;;5044769;28;20039;-64
2023/04/27 08:19:36;;;;;;;16.52;15.43;;;;;;;;;;5044723;28;20025;-63
2023/04/27 08:22:02;;;;;;;15.95;14.95;;;;;;;;;;5051639;28;20038;-63
2023/04/27 08:24:27;;;;;;;14.25;13.45;;;;;;;;;;5050491;28;20024;-63
2023/04/27 08:26:53;;;;;;;14.18;13.48;;;;;;;;;;5051431;28;20412;-62
2023/04/27 08:29:18;;;;;;;16.13;15.13;;;;;;;;;;5051667;28;20480;-62
2023/04/27 08:31:44;;;;;;;15.82;14.82;;;;;;;;;;5046389;28;20496;-63
2023/04/27 08:34:09;;;;;;;15.70;14.70;;;;;;;;;;5054412;28;20066;-63
2023/04/27 08:36:34;;;;;;;14.55;13.75;;;;;;;;;;5048560;28;20375;-63
2023/04/27 08:39:00;;;;;;;15.05;14.15;;;;;;;;;;5043769;28;20465;-63
2023/04/27 08:41:25;;;;;;;13.93;13.23;;;;;;;;;;5046497;28;20032;-62
2023/04/27 08:43:52;;;;;;;15.02;14.13;;;;;;;;;;5048265;28;20451;-63
2023/04/27 08:46:21;;;;;;;15.18;14.27;;;;;;;;;;5046469;28;20020;-63
2023/04/27 08:48:49;;;;;;;13.75;13.05;;;;;;;;;;5046720;28;20025;-64
2023/04/27 08:51:15;;;;;;;15.05;14.15;;;;;;;;;;5044174;28;20021;-63
2023/04/27 08:53:50;;;;;;;15.50;14.55;;;;;;;;;;5052055;28;20013;-65
2023/04/27 08:56:16;;;;;;;14.02;13.27;;;;;;;;;;5049075;28;20017;-66
2023/04/27 08:58:41;;;;;;;16.33;15.23;;;;;;;;;;5056639;28;20035;-66
2023/04/27 09:01:07;;;;;;;14.52;13.70;;;;;;;;;;5053292;28;20044;-66
2023/04/27 09:03:33;;;;;;;15.07;14.18;;;;;;;;;;5043536;28;20024;-66
2023/04/27 09:05:59;;;;;;;14.82;13.98;;;;;;;;;;5047841;28;20824;-66
2023/04/27 09:08:24;;;;;;;13.63;12.93;;;;;;;;;;5049576;28;20051;-66
2023/04/27 09:10:50;;;;;;;14.15;13.38;;;;;;;;;;5043160;28;20029;-67
2023/04/27 09:13:16;;;;;;;14.40;13.60;;;;;;;;;;5051633;28;20396;-72
2023/04/27 09:15:42;;;;;;;14.18;13.40;;;;;;;;;;5049330;28;20060;-67
2023/04/27 09:18:13;;;;;;;14.30;13.50;;;;;;;;;;5045616;28;20824;-68
2023/04/27 09:20:44;;;;;;;15.00;14.10;;;;;;;;;;5046768;28;20044;-68
2023/04/27 09:23:10;;;;;;;13.45;12.75;;;;;;;;;;5044563;28;20029;-63
2023/04/27 09:25:35;;;;;;;13.90;13.15;;;;;;;;;;5051570;28;20033;-63
2023/04/27 09:28:01;;;;;;;14.98;14.07;;;;;;;;;;5047540;28;20083;-62
2023/04/27 09:30:27;;;;;;;14.80;14.00;;;;;;;;;;5046163;28;20028;-64
2023/04/27 09:33:02;;;;;;;15.48;14.52;;;;;;;;;;5046070;28;20392;-64
2023/04/27 09:35:28;;;;;;;14.55;13.75;;;;;;;;;;5048592;28;20111;-64
2023/04/27 09:37:54;;;;;;;14.93;14.02;;;;;;;;;;5045707;28;20032;-64
2023/04/27 09:40:25;;;;;;;14.35;13.55;;;;;;;;;;5051305;28;20033;-64
2023/04/27 09:42:50;;;;;;;14.95;14.05;;;;;;;;;;5045947;28;20108;-64
2023/04/27 09:45:16;;;;;;;13.40;12.70;;;;;;;;;;5049264;28;20112;-64
2023/04/27 09:47:41;;;;;;;14.90;14.00;;;;;;;;;;5041315;28;20040;-64
2023/04/27 09:50:08;;;;;;;15.18;14.27;;;;;;;;;;5047571;28;20036;-64
2023/04/27 09:52:33;;;;;;;14.65;13.82;;;;;;;;;;5044346;28;20070;-64
2023/04/27 09:54:59;;;;;;;14.52;13.73;;;;;;;;;;5046420;28;20119;-63
2023/04/27 09:57:36;;;;;;;14.32;13.52;;;;;;;;;;5044906;28;20056;-64
2023/04/27 10:00:09;;;;;;;14.82;13.98;;;;;;;;;;5046580;28;20404;-63
2023/04/27 10:02:41;;;;;;;14.68;13.85;;;;;;;;;;5046099;28;20091;-63
2023/04/27 10:05:21;;;;;;;15.10;14.20;;;;;;;;;;5044528;28;20040;-64
2023/04/27 10:07:47;;;;;;;15.77;14.77;;;;;;;;;;5048282;28;20033;-64
2023/04/27 10:10:19;;;;;;;13.38;12.68;;;;;;;;;;5048729;28;20391;-64
2023/04/27 10:12:54;;;;;;;14.38;13.57;;;;;;;;;;5039629;28;20017;-64
2023/04/27 10:15:24;;;;;;;15.27;14.35;;;;;;;;;;5040025;28;20048;-63
2023/04/27 10:17:51;;;;;;;13.80;13.02;;;;;;;;;;5038643;28;20373;-62
2023/04/27 10:20:27;;;;;;;14.40;13.60;;;;;;;;;;5042489;28;20401;-63
2023/04/27 10:22:52;;;;;;;14.23;13.43;;;;;;;;;;5041754;28;20034;-62
2023/04/27 10:25:18;;;;;;;13.75;13.05;;;;;;;;;;5046108;28;20667;-63
2023/04/27 10:27:47;;;;;;;14.77;13.88;;;;;;;;;;5051423;28;20510;-62
2023/04/27 10:30:13;;;;;;;12.80;12.20;;;;;;;;;;5052000;28;20017;-63
2023/04/27 10:32:48;;;;;;;13.77;13.05;;;;;;;;;;5048185;28;20034;-63
2023/04/27 10:35:14;;;;;;;13.98;13.18;;;;;;;;;;5049288;28;20020;-63
2023/04/27 10:37:43;;;;;;;14.00;13.20;;;;;;;;;;5049507;28;20037;-63
2023/04/27 10:40:09;;;;;;;14.65;13.75;;;;;;;;;;5049524;28;20020;-63
2023/04/27 10:42:35;;;;;;;13.20;12.55;;;;;;;;;;5048613;28;20504;-63
2023/04/27 10:45:00;;;;;;;14.90;14.02;;;;;;;;;;5048811;28;20067;-67
2023/04/27 10:47:35;;;;;;;13.23;12.55;;;;;;;;;;5046837;28;20083;-67
2023/04/27 10:50:01;;;;;;;14.65;13.77;;;;;;;;;;5046844;28;20024;-66
2023/04/27 10:52:27;;;;;;;14.15;13.35;;;;;;;;;;5044451;28;20059;-63
2023/04/27 10:54:52;;;;;;;13.43;12.73;;;;;;;;;;5051707;28;20044;-65
2023/04/27 10:57:17;;;;;;;13.20;12.50;;;;;;;;;;5047901;28;20156;-65
2023/04/27 10:59:48;;;;;;;13.23;12.57;;;;;;;;;;5042702;28;20460;-68
2023/04/27 11:02:13;;;;;;;15.55;14.57;;;;;;;;;;5036644;28;20037;-68
2023/04/27 11:04:40;;;;;;;13.70;13.00;;;;;;;;;;5048342;28;20029;-67
2023/04/27 11:07:09;;;;;;;13.93;13.18;;;;;;;;;;5037264;28;20029;-67
2023/04/27 11:09:36;;;;;;;13.80;13.10;;;;;;;;;;5045293;28;20032;-66
2023/04/27 11:12:05;;;;;;;14.90;14.02;;;;;;;;;;5043467;28;20017;-67
2023/04/27 11:14:31;;;;;;;14.93;14.02;;;;;;;;;;5040005;28;20041;-67
2023/04/27 11:16:56;;;;;;;15.57;14.63;;;;;;;;;;5043396;28;20190;-66
2023/04/27 11:19:21;;;;;;;14.40;13.60;;;;;;;;;;5038698;28;20064;-67
2023/04/27 11:21:47;;;;;;;13.75;13.05;;;;;;;;;;5045249;28;20024;-68
2023/04/27 11:24:12;;;;;;;16.35;15.27;;;;;;;;;;5044295;28;20032;-65
2023/04/27 11:26:38;;;;;;;16.15;15.15;;;;;;;;;;5044103;28;20040;-66
2023/04/27 11:29:04;;;;;;;15.00;14.13;;;;;;;;;;5044540;28;20082;-65
2023/04/27 11:31:46;;;;;;;14.68;13.85;;;;;;;;;;5035760;28;20400;-67
2023/04/27 11:34:15;;;;;;;14.65;13.85;;;;;;;;;;5047773;28;20028;-66
2023/04/27 11:36:40;;;;;;;15.95;14.95;;;;;;;;;;5041266;28;20048;-67
2023/04/27 11:39:06;;;;;;;15.15;14.23;;;;;;;;;;5051934;28;20029;-67
2023/04/27 11:41:35;;;;;;;16.73;15.60;;;;;;;;;;5047202;28;20045;-65
2023/04/27 11:44:05;;;;;;;15.43;14.48;;;;;;;;;;5053690;28;20021;-64
2023/04/27 11:46:30;;;;;;;15.02;14.13;;;;;;;;;;5049012;28;20029;-63
2023/04/27 11:49:00;;;;;;;14.98;14.07;;;;;;;;;;5047873;28;20074;-65
2023/04/27 11:51:25;;;;;;;15.05;14.15;;;;;;;;;;5051007;28;20384;-63
2023/04/27 11:53:51;;;;;;;14.82;13.93;;;;;;;;;;5043969;28;20083;-66
2023/04/27 11:56:17;;;;;;;14.52;13.73;;;;;;;;;;5047773;28;20028;-65
2023/04/27 11:58:43;;;;;;;14.27;13.48;;;;;;;;;;5045601;28;20037;-65
2023/04/27 12:01:09;;;;;;;14.07;13.27;;;;;;;;;;5050696;28;20140;-65
2023/04/27 12:03:35;;;;;;;14.32;13.52;;;;;;;;;;5048298;28;20108;-63
2023/04/27 12:06:00;;;;;;;14.05;13.25;;;;;;;;;;5045175;28;20041;-69
2023/04/27 12:08:25;;;;;;;13.40;12.70;;;;;;;;;;5046891;28;20021;-68
2023/04/27 12:10:51;;;;;;;13.20;12.50;;;;;;;;;;5049423;28;20036;-70
2023/04/27 12:13:16;;;;;;;14.80;13.90;;;;;;;;;;5049111;28;20025;-67
2023/04/27 12:15:42;;;;;;;14.90;14.00;;;;;;;;;;5057958;28;20037;-67
2023/04/27 12:18:07;;;;;;;14.82;13.98;;;;;;;;;;5049033;28;20496;-66
2023/04/27 12:20:33;;;;;;;14.25;13.45;;;;;;;;;;5049560;28;20384;-67
2023/04/27 12:22:58;;;;;;;15.85;14.85;;;;;;;;;;5045268;28;20029;-65
2023/04/27 12:25:24;;;;;;;14.50;13.70;;;;;;;;;;5055195;28;20487;-65
2023/04/27 12:27:49;;;;;;;15.38;14.48;;;;;;;;;;5051540;28;20031;-63
2023/04/27 12:30:15;;;;;;;14.30;13.50;;;;;;;;;;5054958;28;20021;-65
2023/04/27 12:32:40;;;;;;;14.35;13.55;;;;;;;;;;5048306;28;20469;-65
2023/04/27 12:35:06;;;;;;;13.88;13.15;;;;;;;;;;5047880;28;20115;-68
2023/04/27 12:37:31;;;;;;;14.32;13.52;;;;;;;;;;5052355;28;20066;-63
2023/04/27 12:39:57;;;;;;;14.93;14.02;;;;;;;;;;5041924;28;20022;-68
2023/04/27 12:42:23;;;;;;;15.90;14.90;;;;;;;;;;5040092;28;20032;-66
2023/04/27 12:44:49;;;;;;;15.55;14.55;;;;;;;;;;5046928;28;20014;-65
2023/04/27 12:47:14;;;;;;;14.15;13.35;;;;;;;;;;5053179;28;20033;-67
2023/04/27 12:49:40;;;;;;;16.27;15.18;;;;;;;;;;5052426;28;20379;-66
2023/04/27 12:52:05;;;;;;;14.88;13.98;;;;;;;;;;5052697;28;20376;-65
2023/04/27 12:54:30;;;;;;;15.55;14.57;;;;;;;;;;5048941;28;20421;-66
2023/04/27 12:56:56;;;;;;;13.93;13.18;;;;;;;;;;5047151;28;20111;-66
2023/04/27 12:59:21;;;;;;;14.98;14.07;;;;;;;;;;5040444;28;20021;-67
2023/04/27 13:01:46;;;;;;;15.20;14.30;;;;;;;;;;5041673;28;20045;-68
2023/04/27 13:04:16;;;;;;;15.60;14.60;;;;;;;;;;5049763;28;20100;-69
2023/04/27 13:06:42;;;;;;;14.93;14.02;;;;;;;;;;5046713;28;20037;-71
2023/04/27 13:09:07;;;;;;;14.57;13.75;;;;;;;;;;5045128;28;20373;-65
2023/04/27 13:11:32;;;;;;;13.45;12.75;;;;;;;;;;5045107;28;20115;-64
2023/04/27 13:13:58;;;;;;;15.10;14.20;;;;;;;;;;5044875;28;20035;-66
2023/04/27 13:16:24;;;;;;;14.85;13.95;;;;;;;;;;5046401;28;20025;-64
2023/04/27 13:18:51;;;;;;;15.13;14.23;;;;;;;;;;5048638;28;20043;-67
2023/04/27 13:21:16;;;;;;;16.40;15.30;;;;;;;;;;5038819;28;20794;-65
2023/04/27 13:23:42;;;;;;;15.15;14.25;;;;;;;;;;5041272;28;20025;-65
2023/04/27 13:26:07;;;;;;;14.70;13.85;;;;;;;;;;5048007;28;20041;-65
2023/04/27 13:28:32;;;;;;;14.52;13.65;;;;;;;;;;5051485;28;20017;-67
2023/04/27 13:30:58;;;;;;;16.23;15.13;;;;;;;;;;5048185;28;20036;-66
2023/04/27 13:33:23;;;;;;;14.10;13.30;;;;;;;;;;5052060;28;20017;-66
2023/04/27 13:35:49;;;;;;;13.60;12.90;;;;;;;;;;5049982;28;20087;-64
2023/04/27 13:38:15;;;;;;;14.23;13.43;;;;;;;;;;5051679;28;20435;-64
2023/04/27 13:40:40;;;;;;;14.32;13.52;;;;;;;;;;5047129;28;20025;-62
2023/04/27 13:43:05;;;;;;;15.68;14.68;;;;;;;;;;5048877;28;20017;-66
2023/04/27 13:45:31;;;;;;;14.60;13.80;;;;;;;;;;5055146;28;20048;-66
2023/04/27 13:47:56;;;;;;;15.38;14.45;;;;;;;;;;5050572;28;20100;-67
2023/04/27 13:50:22;;;;;;;16.33;15.23;;;;;;;;;;5046346;28;20030;-67
2023/04/27 13:52:47;;;;;;;14.40;13.60;;;;;;;;;;5053010;28;20025;-67
2023/04/27 13:55:13;;;;;;;15.77;14.77;;;;;;;;;;5044842;28;20025;-67
2023/04/27 13:57:38;;;;;;;14.85;13.95;;;;;;;;;;5039270;28;20393;-69
2023/04/27 14:00:10;;;;;;;15.00;14.10;;;;;;;;;;5049210;28;20538;-65
2023/04/27 14:02:35;;;;;;;15.07;14.18;;;;;;;;;;5044320;28;20128;-66
2023/04/27 14:05:01;;;;;;;15.77;14.77;;;;;;;;;;5046996;28;20488;-66
2023/04/27 14:07:26;;;;;;;16.27;15.20;;;;;;;;;;5045712;28;20023;-67
2023/04/27 14:09:52;;;;;;;14.75;13.85;;;;;;;;;;5046496;28;20019;-66